createdAt,value
2022-12-31T00:01:01.694Z,3.10
2022-12-31T00:03:30.127Z,1.60
2022-12-31T00:05:59.986Z,2.00
2022-12-31T00:08:28.291Z,2.90
2022-12-31T00:10:56.549Z,1.57
2022-12-31T00:13:24.985Z,2.57
2022-12-31T00:15:53.237Z,2.50
2022-12-31T00:18:21.527Z,3.43
2022-12-31T00:20:49.852Z,2.03
2022-12-31T00:23:19.483Z,3.50
2022-12-31T00:25:47.651Z,2.50
2022-12-31T00:28:16.007Z,1.30
2022-12-31T00:30:44.313Z,2.57
2022-12-31T00:33:12.555Z,2.60
2022-12-31T00:35:40.813Z,2.70
2022-12-31T00:38:09.077Z,2.30
2022-12-31T00:40:38.762Z,1.43
2022-12-31T00:45:52.568Z,2.63
2022-12-31T00:48:20.849Z,5.33
2022-12-31T00:50:49.321Z,3.37
2022-12-31T00:53:17.977Z,3.83
2022-12-31T00:55:56.436Z,2.90
2022-12-31T00:58:24.802Z,2.37
2022-12-31T01:00:53.086Z,2.23
2022-12-31T01:03:21.469Z,2.00
2022-12-31T01:05:50.554Z,4.03
2022-12-31T01:08:19.131Z,2.67
2022-12-31T01:11:09.889Z,3.10
2022-12-31T01:13:38.188Z,3.63
2022-12-31T01:16:10.241Z,3.23
2022-12-31T01:18:38.769Z,5.87
2022-12-31T01:21:08.911Z,4.73
2022-12-31T01:23:37.424Z,4.53
2022-12-31T01:26:10.238Z,2.07
2022-12-31T01:28:38.822Z,2.07
2022-12-31T01:31:08.621Z,3.37
2022-12-31T01:33:37.937Z,2.43
2022-12-31T01:36:08.592Z,2.33
2022-12-31T01:38:37.769Z,2.90
2022-12-31T01:41:07.524Z,3.43
2022-12-31T01:43:48.559Z,2.77
2022-12-31T01:46:24.894Z,3.03
2022-12-31T01:48:56.116Z,4.57
2022-12-31T01:51:25.915Z,3.20
2022-12-31T01:53:54.256Z,2.10
2022-12-31T01:56:25.291Z,2.40
2022-12-31T01:58:58.028Z,4.03
2022-12-31T02:01:29.421Z,3.90
2022-12-31T02:03:58.544Z,4.20
2022-12-31T02:06:34.907Z,3.17
2022-12-31T02:09:03.335Z,3.27
2022-12-31T02:11:36.818Z,3.33
2022-12-31T02:14:09.631Z,1.23
2022-12-31T02:16:45.729Z,2.97
2022-12-31T02:19:36.984Z,1.37
2022-12-31T02:22:10.912Z,3.30
2022-12-31T02:25:10.563Z,0.87
2022-12-31T02:27:54.651Z,1.93
2022-12-31T02:30:26.069Z,0.60
2022-12-31T02:33:06.024Z,1.97
2022-12-31T02:35:44.630Z,2.77
2022-12-31T02:38:18.169Z,2.10
2022-12-31T02:40:47.283Z,2.70
2022-12-31T02:43:15.733Z,1.70
2022-12-31T02:45:49.063Z,3.30
2022-12-31T02:48:32.967Z,1.33
2022-12-31T02:51:16.193Z,1.40
2022-12-31T02:54:10.913Z,3.50
2022-12-31T02:56:44.903Z,0.67
2022-12-31T02:59:36.959Z,2.60
2022-12-31T03:02:16.565Z,0.50
2022-12-31T03:04:49.920Z,2.10
2022-12-31T03:07:22.460Z,1.53
2022-12-31T03:09:51.354Z,1.23
2022-12-31T03:12:40.121Z,0.87
2022-12-31T03:15:19.981Z,1.77
2022-12-31T03:17:55.344Z,2.50
2022-12-31T03:20:43.842Z,1.47
2022-12-31T03:23:14.925Z,0.80
2022-12-31T03:25:44.182Z,1.63
2022-12-31T03:28:14.023Z,3.10
2022-12-31T03:30:44.599Z,1.00
2022-12-31T03:33:15.144Z,2.40
2022-12-31T03:35:45.154Z,1.90
2022-12-31T03:38:13.881Z,2.83
2022-12-31T03:40:44.238Z,3.67
2022-12-31T03:43:12.501Z,3.70
2022-12-31T03:45:41.342Z,4.90
2022-12-31T03:48:11.208Z,3.13
2022-12-31T03:50:40.949Z,2.00
2022-12-31T03:53:09.286Z,2.60
2022-12-31T03:55:37.692Z,1.63
2022-12-31T03:58:06.528Z,1.70
2022-12-31T04:00:35.093Z,1.80
2022-12-31T04:03:03.550Z,4.73
2022-12-31T04:05:32.597Z,2.43
2022-12-31T04:08:03.155Z,3.47
2022-12-31T04:10:31.496Z,3.37
2022-12-31T04:13:02.566Z,2.93
2022-12-31T04:15:30.856Z,0.70
2022-12-31T04:17:59.110Z,1.90
2022-12-31T04:20:30.355Z,1.17
2022-12-31T04:22:58.603Z,1.73
2022-12-31T04:25:28.350Z,1.43
2022-12-31T04:27:56.606Z,1.37
2022-12-31T04:30:24.889Z,0.63
2022-12-31T04:32:53.236Z,2.00
2022-12-31T04:35:21.718Z,0.97
2022-12-31T04:37:49.954Z,1.07
2022-12-31T04:40:18.533Z,1.67
2022-12-31T04:42:48.234Z,1.30
2022-12-31T04:45:16.525Z,1.47
2022-12-31T04:47:44.929Z,1.37
2022-12-31T04:50:13.145Z,1.20
2022-12-31T04:52:43.038Z,2.43
2022-12-31T04:55:12.229Z,2.10
2022-12-31T04:57:40.601Z,1.97
2022-12-31T05:00:11.717Z,2.30
2022-12-31T05:02:40.128Z,1.97
2022-12-31T05:05:09.284Z,1.10
2022-12-31T05:07:45.181Z,1.60
2022-12-31T05:10:13.428Z,1.13
2022-12-31T05:12:41.672Z,1.83
2022-12-31T05:15:11.654Z,2.60
2022-12-31T05:17:39.878Z,1.70
2022-12-31T05:20:09.109Z,1.63
2022-12-31T05:22:37.684Z,2.20
2022-12-31T05:25:06.856Z,1.70
2022-12-31T05:27:35.609Z,2.47
2022-12-31T05:30:04.002Z,2.10
2022-12-31T05:32:33.963Z,3.30
2022-12-31T05:35:02.364Z,2.70
2022-12-31T05:37:31.181Z,3.33
2022-12-31T05:39:59.712Z,3.10
2022-12-31T05:42:28.373Z,1.73
2022-12-31T05:44:56.818Z,3.23
2022-12-31T05:47:25.210Z,1.80
2022-12-31T05:49:55.204Z,1.87
2022-12-31T05:52:23.605Z,1.60
2022-12-31T05:54:51.847Z,1.73
2022-12-31T05:57:20.074Z,2.33
2022-12-31T05:59:48.400Z,1.33
2022-12-31T06:02:16.758Z,1.90
2022-12-31T06:04:45.072Z,3.60
2022-12-31T06:07:14.876Z,1.97
2022-12-31T06:09:43.403Z,2.27
2022-12-31T06:12:11.689Z,1.97
2022-12-31T06:14:45.427Z,1.93
2022-12-31T06:17:14.323Z,1.80
2022-12-31T06:19:42.638Z,4.60
2022-12-31T06:22:10.984Z,3.13
2022-12-31T06:24:42.426Z,0.80
2022-12-31T06:27:13.114Z,2.30
2022-12-31T06:29:41.516Z,5.27
2022-12-31T06:32:09.796Z,5.13
2022-12-31T06:34:38.126Z,5.23
2022-12-31T06:37:06.357Z,2.37
2022-12-31T06:39:34.628Z,3.07
2022-12-31T06:42:04.389Z,2.93
2022-12-31T06:44:32.572Z,1.80
2022-12-31T06:47:00.832Z,3.20
2022-12-31T06:49:29.036Z,2.77
2022-12-31T06:51:57.352Z,0.93
2022-12-31T06:54:25.672Z,1.70
2022-12-31T06:56:54.397Z,2.83
2022-12-31T06:59:29.705Z,1.70
2022-12-31T07:02:18.650Z,1.57
2022-12-31T07:05:14.489Z,0.77
2022-12-31T07:07:51.077Z,1.13
2022-12-31T07:10:32.035Z,1.17
2022-12-31T07:13:23.991Z,1.77
2022-12-31T07:16:11.857Z,2.40
2022-12-31T07:18:49.199Z,6.00
2022-12-31T07:21:23.441Z,6.13
2022-12-31T07:23:52.379Z,2.87
2022-12-31T07:26:34.610Z,4.93
2022-12-31T07:29:12.066Z,3.63
2022-12-31T07:31:56.757Z,3.00
2022-12-31T07:34:31.944Z,2.57
2022-12-31T07:37:04.984Z,2.73
2022-12-31T07:39:40.400Z,1.37
2022-12-31T07:42:16.661Z,1.60
2022-12-31T07:44:57.436Z,0.93
2022-12-31T07:47:28.707Z,2.70
2022-12-31T07:49:58.270Z,6.07
2022-12-31T07:52:27.023Z,0.97
2022-12-31T07:54:55.328Z,3.23
2022-12-31T07:57:29.998Z,2.37
2022-12-31T08:00:08.545Z,3.17
2022-12-31T08:03:08.938Z,3.90
2022-12-31T08:05:45.457Z,1.73
2022-12-31T08:08:25.884Z,3.47
2022-12-31T08:11:05.276Z,3.77
2022-12-31T08:13:34.100Z,3.67
2022-12-31T08:16:03.933Z,4.37
2022-12-31T08:18:34.155Z,3.67
2022-12-31T08:21:17.894Z,3.60
2022-12-31T08:23:58.083Z,2.30
2022-12-31T08:26:36.368Z,1.43
2022-12-31T08:29:18.206Z,2.10
2022-12-31T08:31:53.376Z,2.33
2022-12-31T08:34:29.595Z,2.30
2022-12-31T08:37:06.049Z,1.67
2022-12-31T08:39:49.851Z,1.70
2022-12-31T08:42:23.430Z,4.13
2022-12-31T08:45:02.032Z,5.13
2022-12-31T08:47:39.233Z,3.80
2022-12-31T08:50:16.374Z,5.90
2022-12-31T08:52:45.584Z,5.10
2022-12-31T08:55:16.496Z,8.23
2022-12-31T08:57:53.907Z,6.30
2022-12-31T09:00:24.433Z,5.30
2022-12-31T09:03:11.435Z,2.43
2022-12-31T09:05:58.505Z,4.70
2022-12-31T09:08:38.239Z,2.70
2022-12-31T09:11:19.150Z,4.40
2022-12-31T09:14:10.960Z,2.07
2022-12-31T09:16:48.264Z,4.47
2022-12-31T09:19:17.246Z,4.90
2022-12-31T09:21:47.648Z,6.23
2022-12-31T09:24:17.417Z,5.30
2022-12-31T09:26:59.255Z,4.57
2022-12-31T09:29:41.946Z,1.67
2022-12-31T09:32:21.135Z,4.23
2022-12-31T09:34:56.490Z,3.67
2022-12-31T09:37:38.035Z,7.30
2022-12-31T09:40:43.523Z,4.50
2022-12-31T09:44:00.862Z,4.67
2022-12-31T09:47:12.582Z,3.40
2022-12-31T09:50:19.862Z,1.70
2022-12-31T09:53:13.474Z,2.70
2022-12-31T09:55:49.846Z,3.30
2022-12-31T09:58:33.792Z,2.00
2022-12-31T10:01:11.993Z,2.60
2022-12-31T10:03:59.471Z,2.33
2022-12-31T10:06:34.443Z,3.83
2022-12-31T10:09:22.530Z,2.47
2022-12-31T10:12:25.167Z,2.60
2022-12-31T10:15:21.770Z,3.67
2022-12-31T10:18:00.125Z,4.93
2022-12-31T10:20:49.001Z,4.03
2022-12-31T10:23:46.658Z,4.77
2022-12-31T10:26:37.070Z,3.17
2022-12-31T10:29:25.256Z,4.30
2022-12-31T10:32:05.944Z,3.57
2022-12-31T10:34:46.240Z,2.97
2022-12-31T10:37:18.460Z,1.60
2022-12-31T10:39:58.055Z,1.20
2022-12-31T10:42:53.199Z,1.30
2022-12-31T10:45:55.316Z,2.53
2022-12-31T10:49:02.808Z,2.90
2022-12-31T10:52:07.949Z,3.40
2022-12-31T10:55:06.690Z,3.77
2022-12-31T10:58:12.941Z,4.13
2022-12-31T11:00:53.711Z,2.93
2022-12-31T11:04:03.537Z,2.60
2022-12-31T11:07:03.933Z,1.27
2022-12-31T11:10:16.750Z,1.27
2022-12-31T11:13:21.720Z,1.70
2022-12-31T11:16:11.041Z,3.80
2022-12-31T11:18:50.034Z,1.77
2022-12-31T11:21:31.144Z,1.80
2022-12-31T11:24:07.264Z,1.50
2022-12-31T11:26:48.631Z,1.00
2022-12-31T11:29:32.305Z,1.57
2022-12-31T11:32:14.538Z,1.57
2022-12-31T11:35:03.726Z,1.33
2022-12-31T11:37:42.165Z,1.30
2022-12-31T11:40:42.138Z,2.80
2022-12-31T11:43:23.838Z,1.63
2022-12-31T11:46:11.380Z,1.63
2022-12-31T11:48:53.318Z,1.20
2022-12-31T11:51:50.178Z,2.53
2022-12-31T11:54:51.074Z,2.80
2022-12-31T11:57:27.594Z,1.20
2022-12-31T11:59:59.711Z,1.77
2022-12-31T12:02:30.847Z,1.43
2022-12-31T12:05:10.280Z,1.57
2022-12-31T12:07:39.549Z,1.57
2022-12-31T12:10:25.951Z,2.50
2022-12-31T12:12:59.087Z,2.33
2022-12-31T12:15:30.834Z,4.90
2022-12-31T12:18:02.073Z,2.57
2022-12-31T12:20:34.220Z,2.90
2022-12-31T12:23:14.205Z,2.07
2022-12-31T12:25:44.442Z,2.57
2022-12-31T12:28:20.362Z,1.60
2022-12-31T12:33:44.731Z,1.47
2022-12-31T12:36:16.628Z,1.97
2022-12-31T12:38:45.639Z,1.47
2022-12-31T12:41:21.815Z,0.73
2022-12-31T12:44:04.073Z,1.00
2022-12-31T12:46:35.095Z,0.80
2022-12-31T12:49:04.771Z,2.20
2022-12-31T12:51:47.104Z,0.50
2022-12-31T12:54:29.949Z,1.70
2022-12-31T12:57:05.987Z,1.23
2022-12-31T13:00:03.348Z,1.50
2022-12-31T13:03:15.770Z,2.53
2022-12-31T13:05:57.177Z,1.80
2022-12-31T13:08:43.797Z,4.10
2022-12-31T13:11:30.093Z,1.33
2022-12-31T13:14:05.062Z,2.03
2022-12-31T13:16:38.272Z,4.00
2022-12-31T13:19:16.840Z,4.40
2022-12-31T13:21:51.806Z,4.07
2022-12-31T13:24:32.772Z,4.47
2022-12-31T13:27:12.828Z,3.47
2022-12-31T13:29:43.065Z,2.47
2022-12-31T13:32:18.233Z,0.60
2022-12-31T13:34:50.826Z,1.17
2022-12-31T13:37:27.261Z,2.90
2022-12-31T13:40:03.038Z,4.13
2022-12-31T13:42:41.242Z,3.53
2022-12-31T13:45:15.396Z,5.27
2022-12-31T13:47:47.870Z,4.87
2022-12-31T13:50:23.789Z,5.70
2022-12-31T13:52:57.948Z,3.97
2022-12-31T13:55:33.639Z,3.60
2022-12-31T13:58:12.758Z,3.43
2022-12-31T14:00:46.755Z,3.13
2022-12-31T14:03:20.974Z,2.83
2022-12-31T14:05:56.162Z,2.30
2022-12-31T14:08:24.503Z,3.40
2022-12-31T14:11:06.642Z,3.97
2022-12-31T14:13:57.361Z,8.30
2022-12-31T14:16:34.064Z,3.00
2022-12-31T14:19:11.506Z,5.30
2022-12-31T14:21:47.788Z,2.93
2022-12-31T14:24:22.396Z,3.63
2022-12-31T14:26:56.582Z,3.00
2022-12-31T14:29:34.404Z,1.80
2022-12-31T14:32:30.797Z,3.63
2022-12-31T14:35:09.169Z,5.30
2022-12-31T14:37:47.909Z,7.40
2022-12-31T14:40:25.917Z,4.50
2022-12-31T14:43:08.056Z,4.57
2022-12-31T14:45:51.236Z,5.63
2022-12-31T14:48:32.232Z,3.60
2022-12-31T14:51:03.077Z,2.60
2022-12-31T14:53:31.830Z,2.50
2022-12-31T14:56:02.710Z,3.63
2022-12-31T14:58:35.443Z,6.90
2022-12-31T15:01:11.519Z,4.27
2022-12-31T15:03:45.923Z,2.90
2022-12-31T15:06:49.341Z,5.20
2022-12-31T15:09:30.145Z,3.53
2022-12-31T15:12:12.209Z,3.30
2022-12-31T15:15:06.152Z,2.63
2022-12-31T15:17:45.509Z,3.50
2022-12-31T15:20:27.415Z,10.47
2022-12-31T15:22:56.696Z,3.53
2022-12-31T15:25:40.360Z,3.83
2022-12-31T15:28:25.252Z,3.07
2022-12-31T15:30:59.493Z,3.80
2022-12-31T15:33:35.002Z,4.33
2022-12-31T15:36:15.035Z,2.23
2022-12-31T15:38:44.033Z,3.00
2022-12-31T15:41:24.961Z,2.87
2022-12-31T15:43:58.208Z,2.20
2022-12-31T15:46:33.469Z,5.00
2022-12-31T15:49:07.837Z,3.23
2022-12-31T15:51:46.304Z,2.83
2022-12-31T15:54:24.478Z,2.47
2022-12-31T15:56:54.508Z,2.87
2022-12-31T15:59:26.283Z,1.87
2022-12-31T16:01:57.482Z,3.00
2022-12-31T16:04:28.125Z,2.90
2022-12-31T16:07:00.509Z,2.70
2022-12-31T16:09:31.586Z,2.03
2022-12-31T16:12:01.851Z,3.27
2022-12-31T16:14:36.429Z,5.80
2022-12-31T16:17:07.461Z,10.10
2022-12-31T16:19:37.961Z,10.27
2022-12-31T16:22:13.511Z,7.30
2022-12-31T16:25:02.812Z,6.03
2022-12-31T16:27:31.487Z,6.10
2022-12-31T16:30:04.805Z,5.17
2022-12-31T16:32:40.087Z,2.90
2022-12-31T16:35:24.196Z,3.40
2022-12-31T16:38:03.725Z,2.57
2022-12-31T16:40:32.303Z,3.30
2022-12-31T16:43:00.635Z,1.80
2022-12-31T16:45:34.770Z,2.87
2022-12-31T16:48:16.317Z,2.43
2022-12-31T16:50:46.210Z,5.60
2022-12-31T16:53:18.673Z,6.73
2022-12-31T16:55:53.622Z,5.30
2022-12-31T16:58:28.478Z,5.17
2022-12-31T17:01:01.742Z,3.80
2022-12-31T17:03:31.734Z,3.13
2022-12-31T17:06:13.414Z,1.10
2022-12-31T17:08:43.839Z,3.30
2022-12-31T17:11:24.831Z,3.33
2022-12-31T17:14:07.347Z,6.50
2022-12-31T17:16:37.740Z,1.23
2022-12-31T17:19:07.900Z,1.83
2022-12-31T17:21:36.261Z,1.67
2022-12-31T17:24:07.443Z,2.30
2022-12-31T17:26:39.310Z,1.90
2022-12-31T17:29:08.142Z,2.87
2022-12-31T17:31:37.961Z,1.60
2022-12-31T17:34:25.279Z,2.03
2022-12-31T17:37:00.696Z,1.70
2022-12-31T17:39:42.771Z,1.80
2022-12-31T17:42:11.936Z,2.47
2022-12-31T17:44:42.223Z,2.20
2022-12-31T17:47:14.251Z,1.00
2022-12-31T17:49:46.355Z,2.70
2022-12-31T17:52:17.044Z,1.50
2022-12-31T17:54:45.355Z,2.47
2022-12-31T17:57:25.952Z,3.73
2022-12-31T17:59:54.718Z,4.30
2022-12-31T18:02:23.268Z,4.47
2022-12-31T18:04:53.345Z,5.57
2022-12-31T18:07:21.608Z,4.33
2022-12-31T18:09:49.859Z,5.03
2022-12-31T18:12:19.416Z,2.67
2022-12-31T18:14:47.736Z,4.93
2022-12-31T18:17:17.447Z,2.63
2022-12-31T18:20:04.368Z,3.53
2022-12-31T18:22:35.966Z,2.47
2022-12-31T18:25:04.410Z,3.13
2022-12-31T18:27:34.108Z,4.03
2022-12-31T18:30:06.772Z,4.73
2022-12-31T18:32:36.897Z,5.53
2022-12-31T18:35:06.078Z,4.80
2022-12-31T18:37:36.618Z,4.00
2022-12-31T18:40:05.258Z,3.80
2022-12-31T18:42:34.072Z,2.30
2022-12-31T18:45:02.395Z,3.83
2022-12-31T18:47:37.287Z,3.23
2022-12-31T18:50:06.966Z,1.27
2022-12-31T18:52:36.600Z,5.70
2022-12-31T18:55:21.802Z,4.60
2022-12-31T18:57:50.068Z,2.90
2022-12-31T19:00:18.733Z,4.17
2022-12-31T19:02:47.078Z,4.33
2022-12-31T19:05:26.638Z,5.13
2022-12-31T19:07:56.874Z,4.70
2022-12-31T19:10:26.493Z,3.30
2022-12-31T19:12:55.081Z,2.67
2022-12-31T19:15:28.110Z,2.20
2022-12-31T19:17:56.531Z,2.30
2022-12-31T19:20:25.209Z,1.97
2022-12-31T19:22:53.595Z,1.63
2022-12-31T19:25:25.219Z,5.00
2022-12-31T19:27:54.187Z,4.70
2022-12-31T19:30:25.638Z,5.37
2022-12-31T19:32:54.555Z,2.57
2022-12-31T19:35:24.124Z,2.20
2022-12-31T19:37:54.362Z,1.83
2022-12-31T19:40:26.936Z,1.80
2022-12-31T19:42:56.044Z,2.90
2022-12-31T19:45:26.148Z,1.93
2022-12-31T19:47:56.027Z,3.67
2022-12-31T19:50:26.108Z,1.93
2022-12-31T19:52:56.337Z,3.27
2022-12-31T19:55:26.798Z,1.53
2022-12-31T19:57:57.740Z,2.73
2022-12-31T20:00:26.090Z,2.80
2022-12-31T20:02:54.417Z,5.50
2022-12-31T20:05:23.089Z,6.50
2022-12-31T20:07:51.400Z,6.30
2022-12-31T20:10:19.919Z,4.50
2022-12-31T20:12:49.536Z,6.30
2022-12-31T20:15:18.345Z,3.63
2022-12-31T20:17:46.674Z,5.00
2022-12-31T20:20:14.973Z,4.90
2022-12-31T20:22:43.234Z,4.37
2022-12-31T20:25:13.493Z,3.37
2022-12-31T20:27:41.714Z,4.80
2022-12-31T20:30:12.856Z,3.30
2022-12-31T20:32:41.103Z,1.93
2022-12-31T20:35:09.451Z,4.30
2022-12-31T20:37:37.721Z,3.63
2022-12-31T20:40:07.321Z,3.53
2022-12-31T20:42:40.152Z,3.50
2022-12-31T20:45:09.942Z,3.93
2022-12-31T20:47:39.604Z,3.47
2022-12-31T20:50:11.891Z,5.50
2022-12-31T20:52:41.115Z,3.33
2022-12-31T20:55:10.896Z,5.10
2022-12-31T20:57:39.149Z,4.80
2022-12-31T21:00:12.349Z,4.40
2022-12-31T21:02:43.509Z,3.10
2022-12-31T21:05:14.333Z,1.90
2022-12-31T21:07:42.723Z,3.67
2022-12-31T21:10:11.223Z,4.43
2022-12-31T21:12:44.393Z,4.83
2022-12-31T21:15:13.719Z,2.57
2022-12-31T21:17:44.232Z,2.70
2022-12-31T21:20:13.131Z,4.07
2022-12-31T21:22:41.379Z,5.63
2022-12-31T21:25:11.231Z,2.80
2022-12-31T21:27:42.175Z,5.80
2022-12-31T21:30:19.902Z,2.73
2022-12-31T21:32:50.090Z,4.10
2022-12-31T21:35:53.283Z,4.90
2022-12-31T21:38:08.608Z,4.37
2022-12-31T21:40:36.935Z,5.30
2022-12-31T21:43:05.229Z,4.50
2022-12-31T21:45:33.491Z,2.87
2022-12-31T21:48:22.184Z,3.13
2022-12-31T21:50:52.499Z,2.00
2022-12-31T21:53:26.363Z,4.33
2022-12-31T21:56:14.656Z,4.73
2022-12-31T21:58:44.471Z,5.47
2022-12-31T22:01:35.256Z,4.20
2022-12-31T22:04:05.553Z,1.93
2022-12-31T22:06:37.180Z,2.77
2022-12-31T22:09:05.602Z,5.80
2022-12-31T22:11:33.868Z,5.50
2022-12-31T22:14:02.151Z,6.87
2022-12-31T22:16:30.600Z,4.97
2022-12-31T22:19:01.368Z,9.50
2022-12-31T22:21:31.113Z,14.03
2022-12-31T22:23:59.831Z,10.77
2022-12-31T22:26:30.178Z,9.23
2022-12-31T22:29:04.231Z,9.40
2022-12-31T22:31:32.455Z,5.40
2022-12-31T22:34:00.957Z,5.23
2022-12-31T22:36:30.636Z,4.50
2022-12-31T22:38:59.648Z,4.00
2022-12-31T22:41:29.017Z,5.53
2022-12-31T22:44:03.949Z,2.17
2022-12-31T22:46:33.950Z,5.60
2022-12-31T22:49:03.418Z,5.20
2022-12-31T22:51:56.550Z,3.93
2022-12-31T22:54:22.418Z,6.97
2022-12-31T22:56:50.646Z,7.57
2022-12-31T22:59:18.990Z,7.30
2022-12-31T23:01:47.282Z,5.27
2022-12-31T23:04:15.704Z,3.50
2022-12-31T23:06:48.024Z,4.00
2022-12-31T23:09:35.094Z,3.87
2022-12-31T23:12:04.273Z,2.60
2022-12-31T23:14:49.812Z,6.50
2022-12-31T23:17:37.464Z,3.73
2022-12-31T23:20:25.477Z,5.50
2022-12-31T23:23:08.271Z,4.27
2022-12-31T23:25:38.412Z,5.17
2022-12-31T23:28:08.069Z,4.67
2022-12-31T23:30:39.575Z,6.37
2022-12-31T23:33:08.082Z,5.17
2022-12-31T23:35:36.354Z,8.37
2022-12-31T23:38:06.017Z,4.80
2022-12-31T23:40:35.390Z,5.77
2022-12-31T23:43:04.329Z,7.67
2022-12-31T23:45:33.711Z,5.73
2022-12-31T23:48:02.471Z,6.33
2022-12-31T23:50:30.826Z,6.03
2022-12-31T23:52:59.186Z,11.27
2022-12-31T23:55:30.002Z,6.77
2022-12-31T23:57:58.332Z,4.70
